Time;durP1;ratioP1;P1;durP2;ratioP2;P2;SDS_P1;SDS_P2;PMS_P1;PMS_P2;Temp;Humidity;BMP_temperature;BMP_pressure;BME280_temperature;BME280_humidity;BME280_pressure;Samples;Min_cycle;Max_cycle;Signal;HPM_P1;HPM_P2
2022/10/03 00:01:34;;;;;;;14.57;11.65;;;;;21.00;101358.00;;;;2055496;28;20220;-61
2022/10/03 00:02:38;;;;;;;14.77;12.38;;;;;21.00;101363.00;;;;2051397;28;20220;-62
2022/10/03 00:03:56;;;;;;;13.27;10.73;;;;;21.00;101359.00;;;;2053238;28;20692;-62
2022/10/03 00:05:06;;;;;;;14.25;11.32;;;;;21.00;101364.00;;;;2054782;28;20277;-62
2022/10/03 00:06:10;;;;;;;13.07;10.95;;;;;21.00;101362.00;;;;2051396;28;20255;-62
2022/10/03 00:07:28;;;;;;;13.30;11.20;;;;;21.00;101362.00;;;;2054279;28;20216;-62
2022/10/03 00:08:42;;;;;;;12.90;11.20;;;;;21.00;101361.00;;;;2054602;28;20223;-62
2022/10/03 00:09:49;;;;;;;15.70;10.73;;;;;21.00;101366.00;;;;2053530;28;20649;-62
2022/10/03 00:11:04;;;;;;;13.52;10.73;;;;;20.90;101373.00;;;;2051989;28;20227;-61
2022/10/03 00:12:13;;;;;;;13.65;11.27;;;;;21.00;101368.00;;;;2052126;28;20224;-61
2022/10/03 00:13:20;;;;;;;12.57;10.18;;;;;21.00;101364.00;;;;2051523;28;20216;-61
2022/10/03 00:14:57;;;;;;;14.98;10.77;;;;;21.00;101375.00;;;;2044479;29;21186;-62
2022/10/03 00:16:28;;;;;;;16.08;11.18;;;;;20.90;101367.00;;;;2049228;28;20291;-61
2022/10/03 00:17:45;;;;;;;13.10;10.32;;;;;20.90;101370.00;;;;2044828;28;20668;-62
2022/10/03 00:18:57;;;;;;;12.07;10.00;;;;;20.90;101376.00;;;;2050965;28;20596;-61
2022/10/03 00:20:04;;;;;;;14.98;10.50;;;;;20.90;101372.00;;;;2044926;28;20324;-61
2022/10/03 00:21:08;;;;;;;13.90;10.90;;;;;20.90;101379.00;;;;2048573;28;20228;-61
2022/10/03 00:22:20;;;;;;;12.73;9.23;;;;;20.90;101382.00;;;;2051019;28;20530;-62
2022/10/03 00:23:25;;;;;;;12.65;9.50;;;;;20.90;101382.00;;;;2051317;28;20654;-61
2022/10/03 00:24:32;;;;;;;12.27;9.75;;;;;20.90;101382.00;;;;2054729;28;20314;-61
2022/10/03 00:25:59;;;;;;;14.15;9.45;;;;;20.90;101386.00;;;;2043886;29;20653;-62
2022/10/03 00:27:02;;;;;;;12.00;9.15;;;;;20.90;101382.00;;;;2051691;28;20232;-61
2022/10/03 00:28:24;;;;;;;12.85;8.95;;;;;20.90;101391.00;;;;2051839;28;20216;-63
2022/10/03 00:29:37;;;;;;;10.63;8.63;;;;;20.90;101386.00;;;;2051704;28;20215;-61
2022/10/03 00:30:56;;;;;;;11.35;8.60;;;;;20.90;101387.00;;;;2052138;28;20271;-61
2022/10/03 00:32:05;;;;;;;10.60;8.27;;;;;20.90;101385.00;;;;2051765;28;20223;-61
2022/10/03 00:33:09;;;;;;;9.95;8.95;;;;;20.90;101386.00;;;;2044960;29;20227;-62
2022/10/03 00:34:31;;;;;;;10.57;8.70;;;;;20.90;101386.00;;;;2043832;29;20221;-62
2022/10/03 00:36:00;;;;;;;11.18;9.05;;;;;20.90;101375.00;;;;2051493;28;20230;-62
2022/10/03 00:37:15;;;;;;;12.30;8.80;;;;;20.80;101396.00;;;;2034159;28;20226;-62
2022/10/03 00:38:39;;;;;;;10.40;8.00;;;;;20.90;101379.00;;;;2038938;29;20687;-61
2022/10/03 00:39:54;;;;;;;12.18;9.13;;;;;20.90;101380.00;;;;2042787;28;20216;-61
2022/10/03 00:41:21;;;;;;;11.90;8.70;;;;;20.90;101387.00;;;;2052605;28;20224;-61
2022/10/03 00:42:52;;;;;;;12.90;8.60;;;;;20.90;101382.00;;;;2051230;28;20224;-61
2022/10/03 00:44:27;;;;;;;11.30;8.30;;;;;20.90;101392.00;;;;2052540;28;20222;-61
2022/10/03 00:45:58;;;;;;;9.63;7.50;;;;;20.90;101384.00;;;;2043228;29;20229;-62
2022/10/03 00:47:23;;;;;;;11.80;8.10;;;;;20.80;101379.00;;;;2047746;28;20220;-61
2022/10/03 00:48:46;;;;;;;9.75;8.05;;;;;20.80;101387.00;;;;2052248;28;20227;-62
2022/10/03 00:49:57;;;;;;;10.88;8.07;;;;;20.80;101385.00;;;;2051466;28;20227;-61
2022/10/03 00:51:16;;;;;;;8.32;7.15;;;;;20.80;101383.00;;;;2050409;28;20302;-62
2022/10/03 00:52:31;;;;;;;10.00;7.70;;;;;20.80;101391.00;;;;2045692;28;20268;-62
2022/10/03 00:53:53;;;;;;;9.20;7.15;;;;;20.80;101396.00;;;;2049362;28;20242;-61
2022/10/03 00:55:14;;;;;;;8.15;7.35;;;;;20.80;101372.00;;;;2052552;28;20652;-62
2022/10/03 00:56:39;;;;;;;9.73;6.78;;;;;20.80;101401.00;;;;2051775;28;20305;-62
2022/10/03 00:57:49;;;;;;;8.35;6.50;;;;;20.80;101400.00;;;;2049473;28;20235;-61
2022/10/03 00:59:12;;;;;;;8.88;6.90;;;;;20.80;101386.00;;;;2045265;29;20344;-62
2022/10/03 01:00:16;;;;;;;7.45;6.15;;;;;20.80;101397.00;;;;2050501;28;20316;-62
2022/10/03 01:01:27;;;;;;;10.05;7.25;;;;;20.80;101402.00;;;;2045078;28;20305;-62
2022/10/03 01:02:45;;;;;;;9.15;7.10;;;;;20.80;101402.00;;;;2046230;29;20230;-62
2022/10/03 01:03:54;;;;;;;7.80;6.60;;;;;20.80;101407.00;;;;2049739;28;20224;-61
2022/10/03 01:05:00;;;;;;;7.90;6.30;;;;;20.80;101409.00;;;;2054526;28;20231;-62
2022/10/03 01:06:16;;;;;;;7.45;6.68;;;;;20.80;101408.00;;;;2051112;28;20227;-61
2022/10/03 01:08:01;;;;;;;8.57;6.22;;;;;20.80;101412.00;;;;2052687;28;20357;-62
2022/10/03 01:09:34;;;;;;;8.07;6.60;;;;;20.80;101404.00;;;;2052208;28;20219;-62
2022/10/03 01:10:44;;;;;;;12.93;7.32;;;;;20.80;101374.00;;;;2037516;29;20328;-62
2022/10/03 01:11:47;;;;;;;9.32;7.40;;;;;20.80;101401.00;;;;2040419;29;20236;-62
2022/10/03 01:12:52;;;;;;;7.93;6.28;;;;;20.80;101383.00;;;;2043914;29;20236;-62
2022/10/03 01:14:17;;;;;;;7.65;5.90;;;;;20.80;101411.00;;;;2051419;28;20320;-61
2022/10/03 01:15:23;;;;;;;8.27;6.63;;;;;20.80;101412.00;;;;2051834;28;20211;-62
2022/10/03 01:16:36;;;;;;;7.50;6.20;;;;;20.80;101403.00;;;;2051682;28;20226;-61
2022/10/03 01:17:52;;;;;;;7.88;6.30;;;;;20.80;101416.00;;;;2051652;28;20292;-61
2022/10/03 01:19:04;;;;;;;9.50;6.40;;;;;20.80;101411.00;;;;2047080;28;20606;-61
2022/10/03 01:20:14;;;;;;;9.07;6.22;;;;;20.80;101391.00;;;;2039746;29;20623;-61
2022/10/03 01:21:33;;;;;;;8.38;6.20;;;;;20.80;101417.00;;;;2035818;29;20213;-61
2022/10/03 01:23:22;;;;;;;7.80;5.70;;;;;20.80;101411.00;;;;2037078;29;20221;-61
2022/10/03 01:24:44;;;;;;;11.25;6.07;;;;;20.70;101411.00;;;;2044017;29;20208;-62
2022/10/03 01:26:21;;;;;;;6.25;5.38;;;;;20.70;101411.00;;;;2044131;28;20215;-62
2022/10/03 01:30:21;;;;;;;6.95;5.82;;;;;20.80;101403.00;;;;2054185;28;20219;-62
2022/10/03 01:30:39;;;;;;;8.77;6.18;;;;;20.70;101415.00;;;;2052682;28;20208;-62
2022/10/03 01:32:11;;;;;;;7.60;5.80;;;;;20.70;101412.00;;;;2042818;29;20208;-62
2022/10/03 01:33:37;;;;;;;7.85;5.30;;;;;20.70;101404.00;;;;2049099;28;20259;-61
2022/10/03 01:34:59;;;;;;;7.47;5.70;;;;;20.70;101411.00;;;;2047119;29;20251;-61
2022/10/03 01:36:37;;;;;;;6.75;5.03;;;;;20.70;101411.00;;;;2047470;28;20223;-62
2022/10/03 01:37:47;;;;;;;7.97;5.57;;;;;20.70;101430.00;;;;2052287;28;20221;-61
2022/10/03 01:39:05;;;;;;;6.22;5.05;;;;;20.70;101408.00;;;;2052742;28;20218;-62
2022/10/03 01:40:14;;;;;;;7.00;4.82;;;;;20.70;101408.00;;;;2050840;28;20219;-61
2022/10/03 01:41:32;;;;;;;5.40;4.90;;;;;20.70;101412.00;;;;2050736;28;20216;-62
2022/10/03 01:42:51;;;;;;;8.10;5.78;;;;;20.70;101404.00;;;;2051311;28;20263;-61
2022/10/03 01:44:01;;;;;;;6.00;5.20;;;;;20.70;101415.00;;;;2052983;28;20223;-62
2022/10/03 01:45:25;;;;;;;7.32;5.43;;;;;20.70;101413.00;;;;2051938;28;20211;-61
2022/10/03 01:46:42;;;;;;;7.28;4.95;;;;;20.70;101393.00;;;;2052111;28;20766;-61
2022/10/03 01:47:50;;;;;;;6.07;5.15;;;;;20.70;101415.00;;;;2042833;29;20263;-61
2022/10/03 01:49:00;;;;;;;6.97;5.25;;;;;20.70;101410.00;;;;2029897;29;20226;-61
2022/10/03 01:50:54;;;;;;;7.53;5.60;;;;;20.70;101413.00;;;;2047186;28;20256;-61
2022/10/03 01:52:07;;;;;;;6.22;4.50;;;;;20.70;101412.00;;;;2037968;29;20221;-61
2022/10/03 01:53:25;;;;;;;8.18;4.97;;;;;20.70;101414.00;;;;2038798;29;20307;-61
2022/10/03 01:54:43;;;;;;;8.13;5.35;;;;;20.60;101418.00;;;;2020421;29;20221;-61
2022/10/03 01:56:03;;;;;;;7.68;5.15;;;;;20.60;101423.00;;;;2015317;29;20611;-61
2022/10/03 01:57:12;;;;;;;5.40;4.78;;;;;20.70;101424.00;;;;2031409;28;20237;-61
2022/10/03 01:58:38;;;;;;;7.80;5.25;;;;;20.70;101425.00;;;;2051333;28;20299;-61
2022/10/03 01:59:49;;;;;;;9.07;5.35;;;;;20.70;101429.00;;;;2045083;28;20767;-61
2022/10/03 02:00:55;;;;;;;7.22;5.40;;;;;20.70;101428.00;;;;2047513;28;20219;-62
2022/10/03 02:02:03;;;;;;;5.75;4.72;;;;;20.70;101437.00;;;;2049651;28;20228;-61
2022/10/03 02:03:10;;;;;;;6.68;5.80;;;;;20.70;101435.00;;;;2044439;28;20226;-61
2022/10/03 02:04:30;;;;;;;6.30;4.82;;;;;20.70;101437.00;;;;2046912;28;20299;-61
2022/10/03 02:06:05;;;;;;;7.00;5.57;;;;;20.70;101436.00;;;;2044666;29;20220;-61
2022/10/03 02:07:21;;;;;;;6.07;4.65;;;;;20.60;101434.00;;;;2049120;28;20227;-61
2022/10/03 02:08:39;;;;;;;6.13;4.95;;;;;20.60;101442.00;;;;2035668;29;20224;-62
2022/10/03 02:09:39;;;;;;;7.72;5.20;;;;;20.60;101441.00;;;;2038737;28;20213;-61
2022/10/03 02:10:40;;;;;;;8.40;4.63;;;;;20.60;101441.00;;;;2050752;28;20216;-61
2022/10/03 02:11:49;;;;;;;7.90;5.30;;;;;20.60;101444.00;;;;2049684;28;20315;-61
2022/10/03 02:13:36;;;;;;;5.78;4.60;;;;;20.60;101443.00;;;;2049582;28;20459;-61
2022/10/03 02:14:46;;;;;;;5.85;4.55;;;;;20.60;101441.00;;;;2050868;28;20285;-61
2022/10/03 02:16:08;;;;;;;5.50;4.82;;;;;20.60;101423.00;;;;2042309;29;20216;-61
2022/10/03 02:17:22;;;;;;;6.07;4.82;;;;;20.60;101446.00;;;;2033033;29;20236;-61
2022/10/03 02:18:43;;;;;;;6.10;4.68;;;;;20.60;101448.00;;;;2031075;29;20212;-62
2022/10/03 02:20:06;;;;;;;5.88;5.15;;;;;20.60;101452.00;;;;2041369;28;20291;-62
2022/10/03 02:21:19;;;;;;;7.82;5.18;;;;;20.60;101450.00;;;;2049941;28;20278;-61
2022/10/03 02:22:43;;;;;;;5.80;4.43;;;;;20.60;101455.00;;;;2044269;28;20213;-63
2022/10/03 02:23:44;;;;;;;6.70;5.20;;;;;20.60;101450.00;;;;2046574;28;20222;-62
2022/10/03 02:25:13;;;;;;;5.68;4.63;;;;;20.60;101448.00;;;;2050482;28;20238;-62
2022/10/03 02:26:27;;;;;;;5.88;4.80;;;;;20.60;101454.00;;;;2041004;29;20311;-62
2022/10/03 02:27:51;;;;;;;7.00;5.22;;;;;20.60;101452.00;;;;2037544;29;20217;-61
2022/10/03 02:29:19;;;;;;;5.80;5.20;;;;;20.60;101455.00;;;;2041632;28;20224;-62
2022/10/03 02:30:30;;;;;;;6.93;4.63;;;;;20.60;101458.00;;;;2047420;28;20220;-61
2022/10/03 02:32:05;;;;;;;5.63;4.05;;;;;20.60;101430.00;;;;2049617;28;20864;-62
2022/10/03 02:33:36;;;;;;;5.35;4.50;;;;;20.60;101451.00;;;;2047304;28;20246;-61
2022/10/03 02:35:06;;;;;;;6.75;4.80;;;;;20.60;101450.00;;;;2050309;28;20310;-62
2022/10/03 02:36:34;;;;;;;6.30;4.35;;;;;20.60;101462.00;;;;2050537;28;20216;-61
2022/10/03 02:37:56;;;;;;;6.18;4.47;;;;;20.60;101447.00;;;;2051195;28;20219;-61
2022/10/03 02:39:17;;;;;;;5.90;4.05;;;;;20.60;101459.00;;;;2051125;28;20221;-61
2022/10/03 02:40:33;;;;;;;6.72;4.55;;;;;20.60;101460.00;;;;2050828;28;20220;-62
2022/10/03 02:42:06;;;;;;;6.22;4.70;;;;;20.60;101460.00;;;;2050980;28;20949;-62
2022/10/03 02:43:41;;;;;;;6.95;4.85;;;;;20.60;101461.00;;;;2029634;28;20209;-62
2022/10/03 02:45:00;;;;;;;6.68;4.65;;;;;20.60;101454.00;;;;2053459;28;20327;-62
2022/10/03 02:46:41;;;;;;;6.93;4.43;;;;;20.60;101451.00;;;;2051983;28;20355;-62
2022/10/03 02:47:50;;;;;;;4.63;4.18;;;;;20.60;101463.00;;;;2050190;28;20730;-61
2022/10/03 02:49:17;;;;;;;7.60;4.78;;;;;20.60;101456.00;;;;2043846;28;20221;-61
2022/10/03 02:50:36;;;;;;;4.43;4.00;;;;;20.60;101457.00;;;;2038526;29;20220;-61
2022/10/03 02:51:43;;;;;;;7.20;4.90;;;;;20.60;101457.00;;;;2050555;28;20215;-61
2022/10/03 02:53:21;;;;;;;4.97;3.92;;;;;20.50;101450.00;;;;2050181;28;20219;-61
2022/10/03 02:54:27;;;;;;;6.95;4.22;;;;;20.50;101455.00;;;;2051382;28;20220;-61
2022/10/03 02:55:48;;;;;;;4.25;3.67;;;;;20.50;101457.00;;;;2050746;28;20251;-61
2022/10/03 02:57:22;;;;;;;5.07;4.57;;;;;20.50;101461.00;;;;2050396;28;20246;-61
2022/10/03 02:58:41;;;;;;;5.55;4.00;;;;;20.50;101459.00;;;;2050905;28;20207;-61
2022/10/03 03:00:07;;;;;;;5.35;4.70;;;;;20.50;101460.00;;;;2051591;28;20215;-61
2022/10/03 03:01:31;;;;;;;6.32;4.00;;;;;20.50;101458.00;;;;2046053;29;20224;-62
2022/10/03 03:02:57;;;;;;;5.53;4.35;;;;;20.50;101463.00;;;;2042666;28;20220;-62
2022/10/03 03:04:22;;;;;;;4.85;4.35;;;;;20.50;101459.00;;;;2051612;28;20227;-62
2022/10/03 03:05:58;;;;;;;6.35;4.30;;;;;20.50;101456.00;;;;2053130;28;20230;-61
2022/10/03 03:07:01;;;;;;;5.63;4.15;;;;;20.50;101462.00;;;;2042257;29;20304;-62
2022/10/03 03:08:43;;;;;;;4.28;3.78;;;;;20.50;101459.00;;;;2038781;29;20778;-62
2022/10/03 03:10:11;;;;;;;6.53;4.15;;;;;20.50;101461.00;;;;2041877;28;20721;-61
2022/10/03 03:11:17;;;;;;;4.03;3.42;;;;;20.50;101465.00;;;;2046205;28;20568;-61
2022/10/03 03:12:42;;;;;;;5.20;4.20;;;;;20.50;101463.00;;;;2051357;28;20223;-61
2022/10/03 03:13:51;;;;;;;4.35;3.85;;;;;20.50;101467.00;;;;2051252;28;20222;-61
2022/10/03 03:15:29;;;;;;;6.22;4.15;;;;;20.50;101466.00;;;;2044293;28;20219;-61
2022/10/03 03:16:40;;;;;;;5.20;3.83;;;;;20.50;101463.00;;;;2042010;28;20238;-60
2022/10/03 03:17:53;;;;;;;4.80;4.00;;;;;20.50;101465.00;;;;2050323;28;20215;-62
2022/10/03 03:19:04;;;;;;;4.75;3.60;;;;;20.50;101466.00;;;;2049979;28;20231;-60
2022/10/03 03:20:16;;;;;;;5.07;4.45;;;;;20.50;101472.00;;;;2051808;28;20219;-62
2022/10/03 03:21:38;;;;;;;5.28;4.40;;;;;20.50;101474.00;;;;2044037;28;20313;-61
2022/10/03 03:22:52;;;;;;;6.78;5.22;;;;;20.50;101446.00;;;;2049798;28;20306;-61
2022/10/03 03:24:14;;;;;;;5.63;4.03;;;;;20.50;101464.00;;;;2045631;28;20307;-61
2022/10/03 03:25:52;;;;;;;6.30;3.83;;;;;20.50;101468.00;;;;2050057;28;20645;-61
2022/10/03 03:27:01;;;;;;;5.93;4.13;;;;;20.50;101469.00;;;;2050901;28;20219;-61
2022/10/03 03:28:10;;;;;;;5.25;3.88;;;;;20.50;101462.00;;;;2050930;28;20231;-61
2022/10/03 03:29:31;;;;;;;5.80;4.20;;;;;20.50;101461.00;;;;2051137;28;20250;-61
2022/10/03 03:30:38;;;;;;;5.22;4.18;;;;;20.50;101471.00;;;;2052011;28;20215;-62
2022/10/03 03:31:45;;;;;;;4.78;3.70;;;;;20.50;101469.00;;;;2050870;28;20755;-61
2022/10/03 03:33:10;;;;;;;5.53;3.83;;;;;20.50;101470.00;;;;2043537;28;20217;-62
2022/10/03 03:34:22;;;;;;;5.03;3.67;;;;;20.50;101472.00;;;;2051688;28;20227;-62
2022/10/03 03:35:45;;;;;;;5.40;4.07;;;;;20.50;101469.00;;;;2050443;28;20220;-61
2022/10/03 03:37:04;;;;;;;5.10;3.85;;;;;20.50;101443.00;;;;2050757;28;21028;-61
2022/10/03 03:38:23;;;;;;;3.90;3.50;;;;;20.50;101471.00;;;;2049794;28;20687;-61
2022/10/03 03:39:48;;;;;;;5.45;4.20;;;;;20.50;101465.00;;;;2050635;28;20257;-61
2022/10/03 03:41:06;;;;;;;4.80;3.80;;;;;20.40;101470.00;;;;2050684;28;20239;-61
2022/10/03 03:42:49;;;;;;;7.20;4.72;;;;;20.40;101474.00;;;;2048934;28;20226;-61
2022/10/03 03:44:05;;;;;;;5.20;4.03;;;;;20.40;101472.00;;;;2049709;28;20440;-61
2022/10/03 03:45:20;;;;;;;5.65;4.10;;;;;20.40;101473.00;;;;2052479;28;20215;-61
2022/10/03 03:46:38;;;;;;;5.30;3.83;;;;;20.50;101458.00;;;;2052356;28;20219;-61
2022/10/03 03:47:52;;;;;;;4.13;3.75;;;;;20.40;101470.00;;;;2046208;29;20250;-61
2022/10/03 03:49:15;;;;;;;5.53;4.00;;;;;20.40;101473.00;;;;2040653;28;20228;-61
2022/10/03 03:50:30;;;;;;;6.07;3.75;;;;;20.50;101484.00;;;;2046833;28;20231;-61
2022/10/03 03:51:52;;;;;;;5.20;3.80;;;;;20.40;101473.00;;;;2045683;28;20344;-61
2022/10/03 03:53:20;;;;;;;5.65;4.20;;;;;20.50;101473.00;;;;2045624;28;20305;-61
2022/10/03 03:54:42;;;;;;;5.07;3.80;;;;;20.40;101468.00;;;;2053753;28;20227;-61
2022/10/03 03:55:48;;;;;;;4.90;3.60;;;;;20.40;101476.00;;;;2053750;28;20207;-61
2022/10/03 03:57:04;;;;;;;4.05;3.65;;;;;20.40;101472.00;;;;2051821;28;20366;-61
2022/10/03 03:58:22;;;;;;;5.72;4.32;;;;;20.40;101473.00;;;;2052121;28;20255;-62
2022/10/03 03:59:34;;;;;;;5.55;3.92;;;;;20.40;101473.00;;;;2046117;29;20219;-61
2022/10/03 04:01:06;;;;;;;6.00;3.55;;;;;20.40;101477.00;;;;2044151;29;20290;-63
2022/10/03 04:02:06;;;;;;;4.30;3.38;;;;;20.40;101470.00;;;;2031210;29;20224;-62
2022/10/03 04:03:15;;;;;;;5.03;3.70;;;;;20.40;101471.00;;;;2045316;28;20223;-62
2022/10/03 04:04:31;;;;;;;4.43;3.83;;;;;20.40;101470.00;;;;2051745;28;20235;-61
2022/10/03 04:05:37;;;;;;;3.90;3.45;;;;;20.40;101480.00;;;;2051651;28;20250;-62
2022/10/03 04:06:45;;;;;;;5.32;3.83;;;;;20.40;101473.00;;;;2050779;28;20219;-61
2022/10/03 04:08:14;;;;;;;4.10;3.38;;;;;20.40;101469.00;;;;2051326;28;20633;-61
2022/10/03 04:09:28;;;;;;;4.55;3.33;;;;;20.40;101483.00;;;;2051069;28;20219;-61
2022/10/03 04:10:50;;;;;;;4.65;3.63;;;;;20.40;101475.00;;;;2054020;28;20215;-61
2022/10/03 04:12:15;;;;;;;4.00;3.15;;;;;20.40;101477.00;;;;2051611;28;20235;-61
2022/10/03 04:13:36;;;;;;;4.15;3.10;;;;;20.40;101485.00;;;;2052015;28;20219;-61
2022/10/03 04:14:59;;;;;;;5.30;3.65;;;;;20.40;101480.00;;;;2045577;29;20324;-62
2022/10/03 04:16:08;;;;;;;3.25;2.85;;;;;20.40;101474.00;;;;2041884;28;20228;-62
2022/10/03 04:18:58;;;;;;;3.92;3.30;;;;;20.40;101490.00;;;;2053842;28;20215;-61
2022/10/03 04:20:08;;;;;;;4.10;2.95;;;;;20.40;101461.00;;;;2053268;28;20227;-61
2022/10/03 04:21:14;;;;;;;4.72;3.40;;;;;20.40;101483.00;;;;2045310;28;20212;-61
2022/10/03 04:22:21;;;;;;;4.05;3.13;;;;;20.40;101511.00;;;;2050497;28;20226;-61
2022/10/03 04:23:36;;;;;;;4.15;3.28;;;;;20.40;101494.00;;;;2051047;28;20218;-61
2022/10/03 04:25:02;;;;;;;4.20;3.78;;;;;20.40;101496.00;;;;2051984;28;20258;-61
2022/10/03 04:26:33;;;;;;;5.80;3.80;;;;;20.40;101489.00;;;;2049595;28;20582;-61
2022/10/03 04:28:10;;;;;;;5.22;3.42;;;;;20.40;101494.00;;;;2047223;29;20473;-61
2022/10/03 04:29:58;;;;;;;5.65;3.40;;;;;20.40;101500.00;;;;2044986;28;20216;-62
2022/10/03 04:31:26;;;;;;;4.13;3.00;;;;;20.40;101512.00;;;;2043127;28;20253;-61
2022/10/03 04:32:56;;;;;;;3.47;3.15;;;;;20.40;101489.00;;;;2054071;28;20219;-61
2022/10/03 04:33:59;;;;;;;3.58;3.08;;;;;20.40;101492.00;;;;2051501;28;20281;-62
2022/10/03 04:35:15;;;;;;;7.15;3.70;;;;;20.40;101489.00;;;;2051670;28;20224;-61
2022/10/03 04:36:24;;;;;;;5.05;3.83;;;;;20.40;101493.00;;;;2050771;28;20218;-61
2022/10/03 04:37:33;;;;;;;4.45;3.55;;;;;20.40;101496.00;;;;2050428;28;20219;-61
2022/10/03 04:38:49;;;;;;;3.65;3.17;;;;;20.40;101462.00;;;;2051892;28;20227;-61
2022/10/03 04:39:57;;;;;;;4.47;3.63;;;;;20.30;101498.00;;;;2045281;28;20220;-61
2022/10/03 04:41:11;;;;;;;5.65;3.30;;;;;19.90;101491.00;;;;2030672;29;20257;-61
2022/10/03 04:42:27;;;;;;;4.10;3.20;;;;;20.40;101492.00;;;;2039595;28;20217;-62
2022/10/03 04:43:33;;;;;;;4.18;3.15;;;;;20.40;101497.00;;;;2053590;28;20690;-62
2022/10/03 04:44:49;;;;;;;4.65;3.20;;;;;20.40;101491.00;;;;2052323;28;20604;-61
2022/10/03 04:46:24;;;;;;;4.45;3.20;;;;;20.40;101494.00;;;;2047098;29;20207;-61
2022/10/03 04:47:24;;;;;;;7.35;3.70;;;;;20.30;101499.00;;;;2047109;28;21028;-61
2022/10/03 04:48:49;;;;;;;4.90;3.20;;;;;20.30;101496.00;;;;2051193;28;20232;-61
2022/10/03 04:49:55;;;;;;;9.65;2.75;;;;;20.40;101500.00;;;;2035606;29;20217;-61
2022/10/03 04:51:07;;;;;;;5.18;3.33;;;;;20.40;101505.00;;;;2043257;28;20230;-61
2022/10/03 04:52:18;;;;;;;4.60;3.22;;;;;20.40;101497.00;;;;2048902;28;20292;-61
2022/10/03 04:53:39;;;;;;;4.30;3.35;;;;;20.40;101497.00;;;;2037072;28;20245;-61
2022/10/03 04:54:54;;;;;;;4.95;3.20;;;;;20.40;101503.00;;;;2044812;28;20572;-61
2022/10/03 04:56:01;;;;;;;4.25;3.28;;;;;20.30;101489.00;;;;2050452;28;20323;-61
2022/10/03 04:57:04;;;;;;;3.75;2.83;;;;;20.30;101494.00;;;;2051096;28;20610;-61
2022/10/03 04:58:14;;;;;;;3.58;3.05;;;;;20.30;101468.00;;;;2047420;29;20669;-61
2022/10/03 04:59:38;;;;;;;3.92;3.20;;;;;20.30;101498.00;;;;2048487;28;20734;-62
2022/10/03 05:01:05;;;;;;;5.15;3.03;;;;;20.40;101507.00;;;;2051520;28;20234;-61
2022/10/03 05:02:37;;;;;;;6.13;2.88;;;;;20.40;101472.00;;;;2046180;28;20246;-62
2022/10/03 05:03:52;;;;;;;3.78;3.00;;;;;20.30;101471.00;;;;2031125;29;20752;-61
2022/10/03 05:05:07;;;;;;;5.47;3.10;;;;;20.30;101496.00;;;;2040295;29;20283;-62
2022/10/03 05:06:36;;;;;;;3.92;2.83;;;;;20.40;101496.00;;;;2045959;28;20220;-62
2022/10/03 05:07:58;;;;;;;4.45;3.30;;;;;20.30;101501.00;;;;2031907;29;20755;-61
2022/10/03 05:09:14;;;;;;;3.65;2.95;;;;;20.30;101507.00;;;;2036487;29;20306;-61
2022/10/03 05:10:32;;;;;;;4.10;3.00;;;;;20.30;101494.00;;;;2047547;28;20255;-64
2022/10/03 05:11:42;;;;;;;3.35;2.80;;;;;20.30;101502.00;;;;2051477;28;20219;-62
2022/10/03 05:13:10;;;;;;;3.30;2.90;;;;;20.30;101501.00;;;;2050749;28;20294;-61
2022/10/03 05:14:36;;;;;;;4.43;3.55;;;;;20.30;101488.00;;;;2053776;28;20226;-62
2022/10/03 05:16:05;;;;;;;3.13;2.83;;;;;20.30;101491.00;;;;2051655;28;20699;-61
2022/10/03 05:17:09;;;;;;;3.60;2.90;;;;;20.30;101498.00;;;;2049858;28;20216;-61
2022/10/03 05:18:16;;;;;;;4.22;2.90;;;;;20.30;101485.00;;;;2051708;28;20273;-61
2022/10/03 05:19:54;;;;;;;3.95;2.97;;;;;20.30;101498.00;;;;2050781;28;20830;-62
2022/10/03 05:21:06;;;;;;;6.03;2.40;;;;;20.30;101494.00;;;;2051271;28;20283;-62
2022/10/03 05:22:17;;;;;;;3.65;2.55;;;;;20.30;101497.00;;;;2051253;28;20230;-60
2022/10/03 05:24:01;;;;;;;4.35;3.08;;;;;20.30;101470.00;;;;2051350;28;20215;-60
2022/10/03 05:25:21;;;;;;;3.95;2.38;;;;;20.30;101501.00;;;;2052767;28;20642;-61
2022/10/03 05:26:29;;;;;;;3.72;3.10;;;;;20.30;101497.00;;;;2043441;29;20676;-63
2022/10/03 05:27:39;;;;;;;5.38;3.30;;;;;20.30;101498.00;;;;2038110;28;20209;-61
2022/10/03 05:28:49;;;;;;;3.60;2.55;;;;;20.30;101466.00;;;;2044647;28;20696;-61
2022/10/03 05:30:03;;;;;;;4.35;3.05;;;;;20.30;101509.00;;;;2050641;28;20212;-62
2022/10/03 05:31:28;;;;;;;4.25;3.33;;;;;20.30;101508.00;;;;2051127;28;20743;-62
2022/10/03 05:33:00;;;;;;;3.72;3.00;;;;;20.30;101506.00;;;;2050302;28;20729;-61
2022/10/03 05:34:40;;;;;;;3.40;3.10;;;;;20.30;101507.00;;;;2047701;28;20713;-61
2022/10/03 05:35:41;;;;;;;3.35;3.00;;;;;20.30;101516.00;;;;2051344;28;20285;-61
2022/10/03 05:37:19;;;;;;;3.03;2.70;;;;;20.30;101486.00;;;;2051448;28;20220;-62
2022/10/03 05:38:41;;;;;;;3.60;2.45;;;;;20.30;101510.00;;;;2042794;28;20647;-61
2022/10/03 05:39:45;;;;;;;3.78;2.83;;;;;20.30;101513.00;;;;2051003;28;20220;-61
2022/10/03 05:40:58;;;;;;;6.10;3.10;;;;;20.30;101506.00;;;;2051240;28;20299;-61
2022/10/03 05:42:12;;;;;;;3.05;2.75;;;;;20.30;101511.00;;;;2050516;28;20223;-61
2022/10/03 05:43:34;;;;;;;3.28;2.75;;;;;20.30;101506.00;;;;2051449;28;20219;-62
2022/10/03 05:44:44;;;;;;;5.18;2.90;;;;;20.30;101516.00;;;;2051286;28;20229;-62
2022/10/03 05:45:48;;;;;;;3.88;2.75;;;;;20.30;101514.00;;;;2050821;28;20747;-62
2022/10/03 05:47:48;;;;;;;4.18;3.10;;;;;20.30;101516.00;;;;2044123;29;20282;-62
2022/10/03 05:48:52;;;;;;;3.33;3.03;;;;;20.20;101523.00;;;;2050845;28;20319;-62
2022/10/03 05:50:26;;;;;;;5.10;2.97;;;;;20.30;101501.00;;;;2050097;28;20667;-63
2022/10/03 05:51:49;;;;;;;3.90;2.85;;;;;20.30;101522.00;;;;2050100;28;20215;-62
2022/10/03 05:53:01;;;;;;;3.35;2.60;;;;;20.30;101533.00;;;;2052377;28;20856;-61
2022/10/03 05:54:23;;;;;;;4.75;2.58;;;;;20.30;101534.00;;;;2049794;28;20226;-62
2022/10/03 05:55:26;;;;;;;3.35;2.50;;;;;20.30;101529.00;;;;2050250;28;20578;-62
2022/10/03 05:56:40;;;;;;;4.40;2.97;;;;;20.30;101528.00;;;;2053643;28;20227;-62
2022/10/03 05:58:05;;;;;;;4.53;2.67;;;;;20.30;101528.00;;;;2046775;28;20336;-62
2022/10/03 05:59:47;;;;;;;4.35;2.65;;;;;20.30;101532.00;;;;2050816;28;20228;-62
2022/10/03 06:00:50;;;;;;;3.50;3.20;;;;;20.30;101534.00;;;;2050496;28;20247;-61
2022/10/03 06:02:00;;;;;;;3.05;2.55;;;;;20.30;101527.00;;;;2049817;28;20212;-61
2022/10/03 06:03:39;;;;;;;2.95;2.65;;;;;20.30;101535.00;;;;2046372;29;20219;-62
2022/10/03 06:04:42;;;;;;;3.08;2.78;;;;;20.30;101539.00;;;;2038818;28;20679;-62
2022/10/03 06:06:23;;;;;;;3.67;3.05;;;;;20.20;101544.00;;;;2050026;28;20238;-61
2022/10/03 06:07:45;;;;;;;3.65;2.88;;;;;20.30;101541.00;;;;2052967;28;20215;-62
2022/10/03 06:09:13;;;;;;;3.17;2.65;;;;;20.30;101553.00;;;;2050638;28;20220;-62
2022/10/03 06:10:32;;;;;;;5.63;2.78;;;;;20.20;101543.00;;;;2051188;28;22789;-62
2022/10/03 06:11:38;;;;;;;5.65;2.92;;;;;20.30;101540.00;;;;2051545;28;20222;-61
2022/10/03 06:13:03;;;;;;;5.07;3.10;;;;;20.20;101547.00;;;;2051351;28;20219;-61
2022/10/03 06:14:35;;;;;;;4.15;2.83;;;;;20.30;101546.00;;;;2051532;28;20220;-63
2022/10/03 06:15:44;;;;;;;4.20;3.20;;;;;20.40;101543.00;;;;2048195;28;20449;-61
2022/10/03 06:17:14;;;;;;;3.85;3.10;;;;;20.30;101542.00;;;;2051446;28;22109;-62
2022/10/03 06:18:48;;;;;;;5.60;3.70;;;;;20.40;101552.00;;;;2045097;29;20251;-63
2022/10/03 06:20:26;;;;;;;4.93;3.55;;;;;20.40;101555.00;;;;2047269;28;20251;-63
2022/10/03 06:21:51;;;;;;;4.68;3.42;;;;;20.40;101553.00;;;;2049831;28;20223;-62
2022/10/03 06:23:18;;;;;;;3.85;3.08;;;;;20.40;101558.00;;;;2052187;28;20302;-62
2022/10/03 06:24:39;;;;;;;6.45;3.15;;;;;20.30;101557.00;;;;2052652;28;20211;-63
2022/10/03 06:26:03;;;;;;;4.60;3.33;;;;;20.40;101548.00;;;;2046598;28;20262;-62
2022/10/03 06:27:37;;;;;;;4.15;2.97;;;;;20.30;101562.00;;;;2050536;28;20239;-62
2022/10/03 06:28:48;;;;;;;6.68;3.75;;;;;20.20;101544.00;;;;2050419;28;20239;-63
2022/10/03 06:30:20;;;;;;;5.20;3.55;;;;;20.20;101546.00;;;;2050848;28;20223;-62
2022/10/03 06:31:35;;;;;;;5.85;4.20;;;;;20.20;101547.00;;;;2051410;28;21848;-62
2022/10/03 06:33:13;;;;;;;6.72;3.78;;;;;20.20;101551.00;;;;2051196;28;20225;-62